Adrian, MI

9:10 PM EDT on October 31, 2014 (GMT -0400)
Siena Heights University | Change Station
CLOSE
Current Station
Personal Weather Station
Location: Adrian, MI
Elevation: 797 ft
Nearby Weather Stations

Elev 797 ft 41.91 °N, 84.02 °W | Updated 10 seconds ago

Overcast
Overcast
34.1 °F
Feels Like 24 °F
N
16.0
Wind Variable Wind from NNW
Gusts 24.0 mph

Today
High -- | Low -- °F
--% Chance of Precip.
Yesterday
High -- | Low -- °F
Precip. -- in
8:07 AM 6:31 PM
First Quarter, 61% visible
Pressure 30.10 in
Visibility 9.0 miles
Clouds Mostly Cloudy 1800 ft
Overcast 2500 ft
Windchill 24 °F
Dew Point 31 °F
Humidity 89%
Rainfall 0.18 in
Snow Depth Not available.
UV 0 out of 12
Pollen .10 out of 12
Air Quality Not available.
Flu Activity Not available.
METAR KADG 010053Z AUTO 01024G31KT 9SM BKN018 OVC025 01/M01 A3007 RMK AO2 PK WND 02033/0000 SLP191 T00111011

More Conditions Fewer Conditions

Pressure 30.10 in
Visibility 9.0 miles
Clouds Mostly Cloudy 1800 ft
Overcast 2500 ft
Windchill 24 °F
Dew Point 31 °F
Humidity 89%
Rainfall 0.18 in
Snow Depth Not available.
UV 0 out of 12
Pollen .10 out of 12
Air Quality Not available.
Flu Activity Not available.
METAR KADG 010053Z AUTO 01024G31KT 9SM BKN018 OVC025 01/M01 A3007 RMK AO2 PK WND 02033/0000 SLP191 T00111011

More Conditions Fewer Conditions

10-Day Weather Forecast

Almanac

Astronomy

Oct. 31, 2014 Rise Set
Actual Time
Civil Twilight
Nautical Twilight
Astronomical Twilight
Moon
Length of Visible Light
Length of Day
Tomorrow will be .
, % of the Moon is Illuminated

Today's Extremes

State Highs State Lows

Community

WunderPhotos

Upload Photos

1,766,798 photos uploaded!

WunderBlogs® & News

Nearby

Air Quality

  Air Quality AQ Index Pollutant
Not available.

Snow Depth

Station Depth Elevation

Earthquake Activity

City Distance Mag. Time & Date
Minimum magnitude displayed is 2.5.

Coastal Water Temperatures

Place Temperature

Nearby Weather Stations